createdAt,value
2022-08-29T00:01:01.449Z,27.40
2022-08-29T00:03:31.105Z,27.40
2022-08-29T00:06:00.360Z,27.40
2022-08-29T00:08:29.818Z,27.40
2022-08-29T00:10:59.174Z,27.50
2022-08-29T00:13:29.864Z,27.50
2022-08-29T00:15:59.058Z,27.50
2022-08-29T00:18:28.407Z,27.50
2022-08-29T00:20:57.604Z,27.60
2022-08-29T00:23:26.759Z,27.60
2022-08-29T00:25:57.580Z,27.60
2022-08-29T00:28:27.300Z,27.70
2022-08-29T00:30:56.679Z,27.80
2022-08-29T00:33:25.889Z,27.80
2022-08-29T00:35:55.073Z,27.80
2022-08-29T00:38:27.994Z,27.90
2022-08-29T00:40:59.948Z,28.00
2022-08-29T00:43:33.618Z,28.00
2022-08-29T00:46:12.275Z,28.10
2022-08-29T00:48:42.831Z,28.10
2022-08-29T00:51:18.498Z,28.10
2022-08-29T00:53:50.672Z,28.20
2022-08-29T00:56:20.379Z,28.30
2022-08-29T00:58:55.664Z,28.30
2022-08-29T01:01:25.845Z,28.40
2022-08-29T01:03:56.051Z,28.50
2022-08-29T01:06:28.889Z,28.50
2022-08-29T01:08:58.916Z,28.60
2022-08-29T01:11:51.456Z,28.60
2022-08-29T01:14:22.835Z,28.70
2022-08-29T01:16:54.196Z,28.70
2022-08-29T01:19:32.444Z,28.80
2022-08-29T01:22:22.747Z,28.70
2022-08-29T01:24:55.003Z,28.80
2022-08-29T01:27:42.172Z,28.80
2022-08-29T01:30:13.336Z,28.80
2022-08-29T01:32:45.928Z,28.80
2022-08-29T01:35:24.482Z,28.90
2022-08-29T01:38:03.765Z,28.90
2022-08-29T01:40:57.608Z,28.90
2022-08-29T01:44:29.587Z,29.00
2022-08-29T01:47:22.144Z,29.00
2022-08-29T01:51:06.893Z,29.00
2022-08-29T01:53:38.543Z,29.00
2022-08-29T01:57:37.815Z,29.00
2022-08-29T02:00:38.977Z,29.00
2022-08-29T02:03:25.671Z,29.00
2022-08-29T02:06:16.883Z,28.90
2022-08-29T02:09:04.273Z,28.70
2022-08-29T02:11:43.553Z,28.60
2022-08-29T02:17:11.055Z,28.40
2022-08-29T02:22:39.222Z,28.30
2022-08-29T02:25:29.578Z,28.30
2022-08-29T02:28:00.394Z,28.30
2022-08-29T02:30:29.664Z,28.30
2022-08-29T02:32:59.169Z,28.40
2022-08-29T02:35:28.632Z,28.50
2022-08-29T02:38:00.156Z,28.50
2022-08-29T02:40:31.588Z,28.60
2022-08-29T02:43:02.534Z,28.60
2022-08-29T02:45:32.316Z,28.70
2022-08-29T02:48:02.063Z,28.90
2022-08-29T02:50:31.833Z,29.00
2022-08-29T02:53:01.531Z,29.10
2022-08-29T02:55:31.365Z,29.20
2022-08-29T02:58:01.080Z,29.20
2022-08-29T03:00:32.613Z,29.40
2022-08-29T03:03:12.907Z,29.50
2022-08-29T03:05:44.248Z,29.50
2022-08-29T03:08:22.147Z,29.60
2022-08-29T03:10:51.593Z,29.70
2022-08-29T03:13:22.677Z,29.80
2022-08-29T03:15:52.692Z,29.80
2022-08-29T03:18:22.513Z,29.90
2022-08-29T03:20:52.067Z,30.00
2022-08-29T03:23:21.600Z,30.10
2022-08-29T03:25:51.362Z,30.10
2022-08-29T03:28:20.604Z,30.30
2022-08-29T03:30:50.239Z,30.30
2022-08-29T03:33:20.059Z,30.40
2022-08-29T03:35:49.341Z,30.40
2022-08-29T03:38:18.940Z,30.40
2022-08-29T03:40:48.227Z,30.40
2022-08-29T03:43:18.483Z,30.50
2022-08-29T03:45:47.850Z,30.60
2022-08-29T03:48:17.713Z,30.60
2022-08-29T03:50:47.027Z,30.70
2022-08-29T03:53:16.352Z,30.90
2022-08-29T03:55:45.843Z,30.90
2022-08-29T03:58:15.470Z,31.00
2022-08-29T04:00:49.204Z,31.00
2022-08-29T04:03:40.207Z,31.00
2022-08-29T04:06:09.067Z,31.00
2022-08-29T04:08:41.158Z,31.10
2022-08-29T04:11:15.263Z,31.20
2022-08-29T04:13:44.854Z,31.30
2022-08-29T04:16:19.565Z,31.30
2022-08-29T04:18:49.711Z,31.30
2022-08-29T04:21:20.193Z,31.30
2022-08-29T04:23:49.737Z,31.40
2022-08-29T04:26:37.647Z,31.50
2022-08-29T04:29:09.904Z,31.50
2022-08-29T04:31:40.619Z,31.60
2022-08-29T04:34:16.957Z,31.60
2022-08-29T04:36:48.686Z,31.70
2022-08-29T04:39:24.769Z,31.70
2022-08-29T04:41:57.842Z,31.60
2022-08-29T04:44:33.023Z,31.60
2022-08-29T04:47:05.673Z,31.60
2022-08-29T04:49:35.843Z,31.70
2022-08-29T04:52:12.012Z,31.70
2022-08-29T04:54:42.496Z,31.70
2022-08-29T04:57:12.267Z,31.70
2022-08-29T04:59:50.503Z,31.70
2022-08-29T05:02:21.978Z,31.70
2022-08-29T05:04:55.896Z,31.70
2022-08-29T05:07:28.394Z,31.60
2022-08-29T05:10:03.642Z,31.60
2022-08-29T05:12:35.107Z,31.50
2022-08-29T05:15:06.537Z,31.50
2022-08-29T05:17:36.324Z,31.60
2022-08-29T05:20:09.183Z,31.70
2022-08-29T05:22:39.987Z,31.70
2022-08-29T05:25:12.353Z,31.70
2022-08-29T05:27:44.040Z,31.70
2022-08-29T05:30:14.573Z,31.70
2022-08-29T05:32:44.357Z,31.80
2022-08-29T05:35:13.545Z,31.90
2022-08-29T05:37:42.888Z,31.90
2022-08-29T05:40:12.616Z,32.00
2022-08-29T05:42:44.609Z,32.00
2022-08-29T05:45:14.842Z,32.00
2022-08-29T05:47:47.165Z,32.10
2022-08-29T05:50:18.478Z,32.20
2022-08-29T05:52:52.215Z,32.30
2022-08-29T05:55:21.654Z,32.30
2022-08-29T05:57:53.119Z,32.30
2022-08-29T06:00:22.933Z,32.30
2022-08-29T06:02:52.190Z,32.30
2022-08-29T06:05:21.639Z,32.30
2022-08-29T06:07:53.945Z,32.30
2022-08-29T06:10:23.279Z,32.30
2022-08-29T06:12:52.556Z,32.20
2022-08-29T06:15:22.109Z,32.20
2022-08-29T06:17:52.064Z,32.30
2022-08-29T06:20:21.716Z,32.20
2022-08-29T06:22:50.999Z,32.30
2022-08-29T06:25:38.541Z,32.30
2022-08-29T06:28:09.619Z,32.40
2022-08-29T06:30:39.897Z,32.50
2022-08-29T06:33:09.895Z,32.60
2022-08-29T06:35:39.103Z,32.80
2022-08-29T06:38:13.296Z,32.90
2022-08-29T06:40:44.224Z,32.90
2022-08-29T06:43:13.558Z,33.00
2022-08-29T06:45:44.981Z,33.10
2022-08-29T06:48:15.368Z,33.00
2022-08-29T06:50:45.684Z,33.00
2022-08-29T06:53:27.593Z,33.00
2022-08-29T06:56:11.056Z,33.00
2022-08-29T06:58:41.175Z,33.00
2022-08-29T07:09:41.837Z,33.10
2022-08-29T07:12:11.066Z,33.10
2022-08-29T07:14:46.229Z,33.10
2022-08-29T07:17:25.601Z,33.10
2022-08-29T07:19:56.075Z,33.10
2022-08-29T07:22:27.717Z,33.00
2022-08-29T07:24:58.237Z,33.10
2022-08-29T07:27:27.449Z,33.00
2022-08-29T07:29:58.046Z,33.00
2022-08-29T07:32:27.259Z,32.90
2022-08-29T07:34:56.510Z,32.90
2022-08-29T07:37:26.010Z,32.80
2022-08-29T07:39:55.455Z,32.80
2022-08-29T07:42:25.225Z,32.80
2022-08-29T07:44:54.489Z,32.80
2022-08-29T07:47:25.868Z,32.80
2022-08-29T07:49:55.512Z,32.80
2022-08-29T07:52:24.771Z,32.90
2022-08-29T07:54:54.012Z,33.00
2022-08-29T07:57:25.103Z,33.00
2022-08-29T07:59:54.491Z,33.10
2022-08-29T08:02:26.115Z,33.20
2022-08-29T08:04:55.933Z,33.20
2022-08-29T08:07:29.377Z,33.20
2022-08-29T08:09:58.982Z,33.20
2022-08-29T08:12:28.554Z,33.20
2022-08-29T08:14:58.433Z,33.10
2022-08-29T08:17:30.054Z,33.10
2022-08-29T08:20:02.132Z,33.10
2022-08-29T08:22:31.483Z,33.10
2022-08-29T08:25:05.438Z,33.10
2022-08-29T08:27:47.905Z,33.10
2022-08-29T08:30:30.046Z,33.10
2022-08-29T08:33:35.815Z,33.10
2022-08-29T08:36:14.962Z,33.10
2022-08-29T08:38:46.112Z,33.10
2022-08-29T08:41:37.642Z,33.10
2022-08-29T08:44:15.001Z,33.10
2022-08-29T08:46:49.551Z,33.10
2022-08-29T08:49:58.467Z,33.10
2022-08-29T08:52:34.327Z,33.10
2022-08-29T08:55:21.877Z,33.10
2022-08-29T08:58:02.665Z,32.90
2022-08-29T09:00:45.205Z,32.60
2022-08-29T09:03:35.261Z,32.30
2022-08-29T09:06:37.786Z,32.00
2022-08-29T09:09:28.184Z,31.80
2022-08-29T09:12:25.190Z,31.50
2022-08-29T09:15:13.925Z,31.30
2022-08-29T09:18:03.969Z,31.20
2022-08-29T09:20:36.311Z,31.10
2022-08-29T09:23:44.403Z,31.10
2022-08-29T09:26:19.186Z,31.10
2022-08-29T09:28:49.172Z,31.10
2022-08-29T09:37:33.233Z,31.00
2022-08-29T09:40:06.730Z,31.10
2022-08-29T09:42:43.059Z,31.10
2022-08-29T09:45:25.325Z,31.20
2022-08-29T09:48:19.626Z,31.20
2022-08-29T09:50:51.220Z,31.20
2022-08-29T09:53:25.632Z,31.20
2022-08-29T09:55:55.471Z,31.20
2022-08-29T09:58:25.783Z,31.20
2022-08-29T10:01:18.993Z,31.10
2022-08-29T10:04:00.589Z,31.10
2022-08-29T10:06:34.566Z,31.10
2022-08-29T10:09:14.733Z,31.00
2022-08-29T10:11:56.603Z,31.00
2022-08-29T10:14:50.546Z,30.90
2022-08-29T10:18:02.481Z,30.80
2022-08-29T10:20:44.735Z,30.80
2022-08-29T10:23:26.603Z,30.70
2022-08-29T10:25:56.420Z,30.70
2022-08-29T10:28:31.926Z,30.70
2022-08-29T10:31:06.363Z,30.60
2022-08-29T10:33:56.328Z,30.60
2022-08-29T10:36:32.994Z,30.60
2022-08-29T10:39:04.090Z,30.50
2022-08-29T10:41:53.278Z,30.50
2022-08-29T10:44:35.922Z,30.40
2022-08-29T10:47:16.161Z,30.40
2022-08-29T10:50:00.573Z,30.40
2022-08-29T10:52:54.665Z,30.30
2022-08-29T10:55:49.878Z,30.30
2022-08-29T10:58:39.153Z,30.30
2022-08-29T11:01:23.781Z,30.30
2022-08-29T11:04:08.546Z,30.20
2022-08-29T11:06:44.871Z,30.20
2022-08-29T11:09:39.276Z,30.20
2022-08-29T11:12:17.562Z,30.20
2022-08-29T11:14:55.303Z,30.10
2022-08-29T11:17:28.874Z,30.10
2022-08-29T11:20:21.105Z,30.00
2022-08-29T11:23:02.735Z,29.90
2022-08-29T11:25:34.899Z,29.70
2022-08-29T11:28:23.049Z,29.60
2022-08-29T11:31:19.635Z,29.50
2022-08-29T11:34:28.164Z,29.40
2022-08-29T11:37:26.822Z,29.30
2022-08-29T11:40:00.471Z,29.20
2022-08-29T11:42:50.850Z,29.10
2022-08-29T11:45:41.041Z,29.00
2022-08-29T11:48:34.504Z,28.90
2022-08-29T11:51:40.876Z,28.80
2022-08-29T11:54:31.174Z,28.70
2022-08-29T11:57:02.349Z,28.60
2022-08-29T11:59:56.262Z,28.50
2022-08-29T12:02:33.892Z,28.50
2022-08-29T12:05:10.615Z,28.60
2022-08-29T12:07:52.411Z,28.50
2022-08-29T12:10:25.439Z,28.50
2022-08-29T12:13:00.432Z,28.50
2022-08-29T12:15:33.988Z,28.50
2022-08-29T12:18:16.968Z,28.60
2022-08-29T12:20:50.533Z,28.60
2022-08-29T12:23:29.382Z,28.60
2022-08-29T12:26:21.438Z,28.60
2022-08-29T12:29:01.232Z,28.60
2022-08-29T12:31:56.878Z,28.60
2022-08-29T12:34:55.190Z,28.60
2022-08-29T12:37:45.935Z,28.60
2022-08-29T12:40:50.667Z,28.60
2022-08-29T12:43:44.078Z,28.70
2022-08-29T12:46:24.846Z,28.60
2022-08-29T12:49:04.849Z,28.60
2022-08-29T12:51:38.772Z,28.60
2022-08-29T12:54:09.433Z,28.60
2022-08-29T12:56:45.286Z,28.70
2022-08-29T12:59:20.888Z,28.70
2022-08-29T13:01:54.969Z,28.60
2022-08-29T13:04:32.227Z,28.60
2022-08-29T13:07:06.722Z,28.60
2022-08-29T13:09:46.607Z,28.60
2022-08-29T13:12:23.702Z,28.60
2022-08-29T13:15:32.555Z,28.50
2022-08-29T13:18:02.867Z,28.50
2022-08-29T13:21:11.416Z,28.50
2022-08-29T13:23:47.279Z,28.50
2022-08-29T13:26:17.401Z,28.50
2022-08-29T13:28:57.754Z,28.50
2022-08-29T13:31:29.446Z,28.40
2022-08-29T13:33:59.578Z,28.40
2022-08-29T13:36:50.707Z,28.40
2022-08-29T13:39:26.463Z,28.40
2022-08-29T13:42:16.966Z,28.30
2022-08-29T13:44:49.031Z,28.30
2022-08-29T13:47:25.539Z,28.30
2022-08-29T13:49:59.662Z,28.30
2022-08-29T13:52:31.448Z,28.30
2022-08-29T13:55:01.697Z,28.20
2022-08-29T13:57:32.909Z,28.20
2022-08-29T14:00:03.851Z,28.20
2022-08-29T14:02:33.296Z,28.20
2022-08-29T14:05:02.556Z,28.20
2022-08-29T14:07:33.273Z,28.20
2022-08-29T14:10:02.601Z,28.20
2022-08-29T14:12:34.101Z,28.20
2022-08-29T14:15:09.642Z,28.20
2022-08-29T14:17:42.408Z,28.10
2022-08-29T14:20:12.169Z,28.10
2022-08-29T14:22:41.959Z,28.10
2022-08-29T14:25:12.522Z,28.10
2022-08-29T14:27:42.248Z,28.10
2022-08-29T14:30:14.100Z,28.10
2022-08-29T14:32:43.356Z,28.10
2022-08-29T14:35:26.092Z,28.00
2022-08-29T14:37:57.854Z,28.00
2022-08-29T14:40:28.985Z,28.00
2022-08-29T14:42:59.477Z,28.00
2022-08-29T14:45:30.284Z,28.00
2022-08-29T14:48:00.350Z,27.90
2022-08-29T14:50:29.637Z,27.80
2022-08-29T14:52:59.038Z,27.80
2022-08-29T14:55:28.307Z,27.70
2022-08-29T14:57:57.576Z,27.80
2022-08-29T15:00:29.462Z,27.80
2022-08-29T15:02:59.434Z,27.80
2022-08-29T15:05:28.864Z,27.80
2022-08-29T15:08:00.660Z,27.80
2022-08-29T15:10:32.281Z,27.80
2022-08-29T15:13:01.582Z,27.80
2022-08-29T15:15:31.810Z,27.80
2022-08-29T15:18:02.930Z,27.80
2022-08-29T15:20:36.746Z,27.80
2022-08-29T15:23:06.908Z,27.90
2022-08-29T15:25:36.243Z,27.80
2022-08-29T15:28:07.423Z,27.80
2022-08-29T15:30:36.795Z,27.90
2022-08-29T15:33:06.624Z,27.80
2022-08-29T15:35:35.928Z,27.80
2022-08-29T15:38:05.256Z,27.80
2022-08-29T15:40:35.194Z,27.80
2022-08-29T15:43:05.653Z,27.80
2022-08-29T15:45:34.935Z,27.80
2022-08-29T15:48:05.908Z,27.80
2022-08-29T15:50:40.885Z,27.80
2022-08-29T15:53:10.701Z,27.80
2022-08-29T15:55:44.218Z,27.80
2022-08-29T15:58:14.152Z,27.80
2022-08-29T16:00:43.599Z,27.80
2022-08-29T16:03:12.815Z,27.80
2022-08-29T16:05:42.407Z,27.70
2022-08-29T16:08:16.417Z,27.70
2022-08-29T16:10:46.654Z,27.70
2022-08-29T16:13:16.293Z,27.70
2022-08-29T16:15:45.623Z,27.70
2022-08-29T16:18:15.068Z,27.70
2022-08-29T16:20:45.445Z,27.70
2022-08-29T16:23:15.018Z,27.70
2022-08-29T16:25:44.467Z,27.70
2022-08-29T16:28:13.669Z,27.70
2022-08-29T16:30:45.723Z,27.60
2022-08-29T16:33:15.845Z,27.60
2022-08-29T16:35:45.387Z,27.50
2022-08-29T16:38:14.719Z,27.50
2022-08-29T16:40:44.274Z,27.50
2022-08-29T16:43:13.566Z,27.40
2022-08-29T16:45:42.888Z,27.50
2022-08-29T16:48:17.090Z,27.50
2022-08-29T16:50:47.323Z,27.50
2022-08-29T16:53:16.716Z,27.50
2022-08-29T16:55:45.974Z,27.60
2022-08-29T16:58:35.119Z,27.50
2022-08-29T17:01:17.936Z,27.50
2022-08-29T17:03:46.756Z,27.50
2022-08-29T17:06:15.912Z,27.50
2022-08-29T17:08:45.417Z,27.50
2022-08-29T17:11:14.966Z,27.50
2022-08-29T17:13:44.976Z,27.50
2022-08-29T17:16:15.069Z,27.50
2022-08-29T17:18:44.586Z,27.50
2022-08-29T17:21:14.740Z,27.50
2022-08-29T17:23:44.440Z,27.50
2022-08-29T17:26:17.725Z,27.50
2022-08-29T17:28:48.512Z,27.50
2022-08-29T17:31:18.641Z,27.50
2022-08-29T17:33:48.006Z,27.50
2022-08-29T17:36:18.342Z,27.50
2022-08-29T17:38:49.089Z,27.50
2022-08-29T17:41:24.061Z,27.50
2022-08-29T17:43:53.264Z,27.40
2022-08-29T17:46:23.841Z,27.50
2022-08-29T17:48:53.152Z,27.40
2022-08-29T17:51:23.020Z,27.40
2022-08-29T17:53:53.974Z,27.40
2022-08-29T17:56:31.063Z,27.40
2022-08-29T17:59:00.281Z,27.40
2022-08-29T18:01:32.427Z,27.50
2022-08-29T18:04:01.939Z,27.40
2022-08-29T18:06:32.569Z,27.40
2022-08-29T18:09:01.939Z,27.40
2022-08-29T18:11:33.085Z,27.40
2022-08-29T18:14:02.696Z,27.30
2022-08-29T18:16:31.942Z,27.30
2022-08-29T18:19:01.147Z,27.30
2022-08-29T18:21:31.497Z,27.30
2022-08-29T18:24:01.351Z,27.30
2022-08-29T18:26:31.252Z,27.30
2022-08-29T18:29:01.501Z,27.30
2022-08-29T18:31:30.738Z,27.30
2022-08-29T18:34:01.304Z,27.30
2022-08-29T18:36:32.577Z,27.30
2022-08-29T18:39:03.253Z,27.30
2022-08-29T18:41:32.921Z,27.30
2022-08-29T18:44:02.154Z,27.30
2022-08-29T18:46:31.855Z,27.30
2022-08-29T18:49:01.273Z,27.20
2022-08-29T18:51:30.612Z,27.30
2022-08-29T18:53:59.802Z,27.20
2022-08-29T18:56:29.149Z,27.20
2022-08-29T18:58:58.730Z,27.20
2022-08-29T19:01:30.274Z,27.20
2022-08-29T19:04:01.545Z,27.20
2022-08-29T19:06:30.985Z,27.20
2022-08-29T19:09:01.208Z,27.20
2022-08-29T19:11:30.839Z,27.20
2022-08-29T19:14:00.005Z,27.20
2022-08-29T19:16:29.300Z,27.20
2022-08-29T19:18:58.546Z,27.10
2022-08-29T19:21:27.787Z,27.10
2022-08-29T19:23:57.920Z,27.10
2022-08-29T19:26:31.269Z,27.10
2022-08-29T19:29:03.383Z,27.10
2022-08-29T19:31:33.115Z,27.10
2022-08-29T19:34:02.511Z,27.10
2022-08-29T19:36:31.708Z,27.10
2022-08-29T19:39:01.187Z,27.10
2022-08-29T19:41:30.356Z,27.10
2022-08-29T19:44:00.743Z,27.10
2022-08-29T19:46:30.120Z,27.00
2022-08-29T19:48:59.470Z,27.00
2022-08-29T19:51:33.887Z,27.00
2022-08-29T19:54:07.364Z,27.00
2022-08-29T19:56:37.798Z,27.00
2022-08-29T19:59:07.518Z,27.00
2022-08-29T20:01:37.368Z,27.00
2022-08-29T20:04:07.595Z,27.00
2022-08-29T20:06:37.438Z,27.00
2022-08-29T20:09:07.777Z,27.10
2022-08-29T20:11:43.458Z,27.10
2022-08-29T20:14:14.279Z,27.00
2022-08-29T20:16:44.299Z,27.10
2022-08-29T20:19:14.309Z,27.10
2022-08-29T20:21:46.193Z,27.10
2022-08-29T20:24:16.659Z,27.10
2022-08-29T20:26:49.294Z,27.10
2022-08-29T20:29:19.154Z,27.10
2022-08-29T20:31:48.943Z,27.10
2022-08-29T20:34:18.720Z,27.10
2022-08-29T20:37:07.854Z,27.10
2022-08-29T20:39:41.292Z,27.10
2022-08-29T20:42:11.093Z,27.10
2022-08-29T20:44:43.183Z,27.10
2022-08-29T20:47:15.329Z,27.00
2022-08-29T20:49:44.738Z,27.00
2022-08-29T20:52:16.389Z,27.00
2022-08-29T20:54:46.099Z,27.00
2022-08-29T20:57:16.519Z,27.10
2022-08-29T20:59:46.214Z,27.00
2022-08-29T21:02:16.177Z,27.10
2022-08-29T21:05:05.122Z,27.00
2022-08-29T21:07:34.341Z,27.00
2022-08-29T21:10:03.534Z,27.00
2022-08-29T21:12:32.824Z,27.00
2022-08-29T21:15:02.366Z,27.00
2022-08-29T21:17:31.611Z,27.00
2022-08-29T21:20:01.248Z,26.90
2022-08-29T21:22:30.415Z,26.90
2022-08-29T21:24:59.717Z,26.90
2022-08-29T21:27:30.519Z,26.80
2022-08-29T21:29:59.816Z,26.80
2022-08-29T21:32:29.093Z,26.80
2022-08-29T21:34:58.357Z,26.80
2022-08-29T21:37:27.602Z,26.80
2022-08-29T21:39:56.790Z,26.80
2022-08-29T21:42:26.750Z,26.80
2022-08-29T21:44:57.537Z,26.80
2022-08-29T21:47:27.075Z,26.80
2022-08-29T21:49:56.198Z,26.80
2022-08-29T21:52:25.925Z,26.80
2022-08-29T21:54:55.584Z,26.80
2022-08-29T21:57:44.405Z,26.70
2022-08-29T22:00:17.233Z,26.70
2022-08-29T22:02:46.314Z,26.70
2022-08-29T22:05:16.556Z,26.70
2022-08-29T22:07:47.245Z,26.70
2022-08-29T22:10:20.515Z,26.70
2022-08-29T22:12:49.680Z,26.70
2022-08-29T22:15:39.070Z,26.60
2022-08-29T22:18:09.112Z,26.60
2022-08-29T22:20:40.287Z,26.60
2022-08-29T22:23:10.187Z,26.60
2022-08-29T22:25:39.752Z,26.60
2022-08-29T22:28:11.853Z,26.60
2022-08-29T22:30:41.819Z,26.60
2022-08-29T22:33:12.894Z,26.60
2022-08-29T22:35:46.170Z,26.60
2022-08-29T22:38:15.722Z,26.60
2022-08-29T22:40:46.015Z,26.60
2022-08-29T22:43:15.770Z,26.60
2022-08-29T22:45:45.441Z,26.60
2022-08-29T22:48:20.182Z,26.60
2022-08-29T22:50:57.922Z,26.70
2022-08-29T22:53:27.837Z,26.70
2022-08-29T22:55:57.647Z,26.70
2022-08-29T22:58:27.873Z,26.70
2022-08-29T23:00:57.331Z,26.70
2022-08-29T23:03:27.143Z,26.70
2022-08-29T23:05:56.299Z,26.70
2022-08-29T23:08:26.745Z,26.60
2022-08-29T23:10:56.039Z,26.60
2022-08-29T23:13:25.677Z,26.60
2022-08-29T23:15:55.318Z,26.60
2022-08-29T23:18:24.597Z,26.60
2022-08-29T23:20:53.761Z,26.60
2022-08-29T23:23:23.415Z,26.60
2022-08-29T23:25:52.750Z,26.60
2022-08-29T23:28:21.992Z,26.60
2022-08-29T23:30:51.211Z,26.60
2022-08-29T23:33:20.489Z,26.60
2022-08-29T23:35:49.619Z,26.60
2022-08-29T23:38:19.260Z,26.60
2022-08-29T23:40:48.438Z,26.60
2022-08-29T23:43:18.419Z,26.60
2022-08-29T23:45:47.662Z,26.60
2022-08-29T23:48:24.035Z,26.60
2022-08-29T23:50:58.980Z,26.70
2022-08-29T23:53:28.422Z,26.70
2022-08-29T23:55:57.592Z,26.70
2022-08-29T23:58:26.883Z,26.70
